createdAt,value
2018-06-11T00:02:35.010Z,21.56
2018-06-11T00:07:27.947Z,21.52
2018-06-11T00:12:20.871Z,21.46
2018-06-11T00:17:13.673Z,21.37
2018-06-11T00:22:06.505Z,21.34
2018-06-11T00:26:59.331Z,21.27
2018-06-11T00:31:52.250Z,21.22
2018-06-11T00:36:45.067Z,21.16
2018-06-11T00:41:37.962Z,21.08
2018-06-11T00:46:30.905Z,21.04
2018-06-11T00:51:23.766Z,20.94
2018-06-11T00:56:16.611Z,20.89
2018-06-11T01:01:09.555Z,20.85
2018-06-11T01:06:02.481Z,20.83
2018-06-11T01:10:55.410Z,20.78
2018-06-11T01:15:48.357Z,20.73
2018-06-11T01:20:41.311Z,20.70
2018-06-11T01:25:34.227Z,20.65
2018-06-11T01:30:27.175Z,20.62
2018-06-11T01:35:20.116Z,20.61
2018-06-11T01:40:13.077Z,20.57
2018-06-11T01:45:05.975Z,20.50
2018-06-11T01:49:58.831Z,20.43
2018-06-11T01:54:51.709Z,20.39
2018-06-11T01:59:44.619Z,20.35
2018-06-11T02:04:37.493Z,20.32
2018-06-11T02:09:30.444Z,20.30
2018-06-11T02:14:23.297Z,20.26
2018-06-11T02:19:16.225Z,20.21
2018-06-11T02:24:09.080Z,20.14
2018-06-11T02:29:01.973Z,20.11
2018-06-11T02:33:54.805Z,20.07
2018-06-11T02:38:47.682Z,20.04
2018-06-11T02:43:40.610Z,20.00
2018-06-11T02:48:33.590Z,19.93
2018-06-11T02:53:26.497Z,19.90
2018-06-11T02:58:19.350Z,19.84
2018-06-11T03:03:12.329Z,19.79
2018-06-11T03:08:05.214Z,19.78
2018-06-11T03:12:58.292Z,19.80
2018-06-11T03:17:51.160Z,19.82
2018-06-11T03:22:44.057Z,19.84
2018-06-11T03:27:36.916Z,19.83
2018-06-11T03:32:29.732Z,19.84
2018-06-11T03:37:22.637Z,19.85
2018-06-11T03:42:15.522Z,19.86
2018-06-11T03:47:08.384Z,19.87
2018-06-11T03:52:01.314Z,19.89
2018-06-11T03:56:54.249Z,19.90
2018-06-11T04:01:47.165Z,19.95
2018-06-11T04:06:40.085Z,19.97
2018-06-11T04:11:33.025Z,20.00
2018-06-11T04:16:25.965Z,20.02
2018-06-11T04:21:18.882Z,20.04
2018-06-11T04:26:11.857Z,20.04
2018-06-11T04:31:04.698Z,20.04
2018-06-11T04:35:57.607Z,20.02
2018-06-11T04:40:50.659Z,20.00
2018-06-11T04:45:43.545Z,19.99
2018-06-11T04:50:36.517Z,19.97
2018-06-11T04:55:29.409Z,19.97
2018-06-11T05:00:22.301Z,19.97
2018-06-11T05:05:15.280Z,20.00
2018-06-11T05:10:08.278Z,20.04
2018-06-11T05:15:01.118Z,20.07
2018-06-11T05:19:54.107Z,20.08
2018-06-11T05:24:47.004Z,20.10
2018-06-11T05:29:39.905Z,20.14
2018-06-11T05:34:32.877Z,20.17
2018-06-11T05:39:25.805Z,20.22
2018-06-11T05:44:18.718Z,20.23
2018-06-11T05:49:11.628Z,20.28
2018-06-11T05:54:04.542Z,20.28
2018-06-11T05:58:57.466Z,20.32
2018-06-11T06:03:50.385Z,20.34
2018-06-11T06:08:43.292Z,20.40
2018-06-11T06:13:36.332Z,20.45
2018-06-11T06:18:29.230Z,20.49
2018-06-11T06:23:22.144Z,20.54
2018-06-11T06:28:15.301Z,20.58
2018-06-11T06:33:08.157Z,20.60
2018-06-11T06:38:01.042Z,20.56
2018-06-11T06:42:54.050Z,20.66
2018-06-11T06:47:46.933Z,20.71
2018-06-11T06:52:39.801Z,20.73
2018-06-11T06:57:32.808Z,20.68
2018-06-11T07:02:25.833Z,20.68
2018-06-11T07:07:18.740Z,20.66
2018-06-11T07:12:11.700Z,20.59
2018-06-11T07:17:04.641Z,20.57
2018-06-11T07:21:57.521Z,20.63
2018-06-11T07:26:50.592Z,20.94
2018-06-11T07:31:43.560Z,21.04
2018-06-11T07:36:36.432Z,20.97
2018-06-11T07:41:29.375Z,21.02
2018-06-11T07:46:22.326Z,22.04
2018-06-11T07:51:15.275Z,23.09
2018-06-11T07:56:08.164Z,22.83
2018-06-11T08:01:01.081Z,22.45
2018-06-11T08:05:54.037Z,22.47
2018-06-11T08:10:47.113Z,22.72
2018-06-11T08:15:40.011Z,22.49
2018-06-11T08:20:33.005Z,22.42
2018-06-11T08:25:26.029Z,22.21
2018-06-11T08:30:18.884Z,21.96
2018-06-11T08:35:11.969Z,21.98
2018-06-11T08:40:04.953Z,22.11
2018-06-11T08:44:58.032Z,22.55
2018-06-11T08:49:50.990Z,22.67
2018-06-11T08:54:43.987Z,22.49
2018-06-11T08:59:36.906Z,22.35
2018-06-11T09:04:29.802Z,22.62
2018-06-11T09:09:22.675Z,23.07
2018-06-11T09:14:15.574Z,23.22
2018-06-11T09:19:08.574Z,23.01
2018-06-11T09:24:01.518Z,22.76
2018-06-11T09:28:54.450Z,22.82
2018-06-11T09:33:47.407Z,22.95
2018-06-11T09:38:40.265Z,23.09
2018-06-11T09:43:33.217Z,22.98
2018-06-11T09:48:26.162Z,22.66
2018-06-11T09:53:19.029Z,22.64
2018-06-11T09:58:11.958Z,22.88
2018-06-11T10:03:05.268Z,22.91
2018-06-11T10:07:58.167Z,23.00
2018-06-11T10:12:51.015Z,22.97
2018-06-11T10:17:44.793Z,23.03
2018-06-11T10:22:37.777Z,23.35
2018-06-11T10:27:30.874Z,23.54
2018-06-11T10:32:23.855Z,23.69
2018-06-11T10:37:16.773Z,23.78
2018-06-11T10:42:09.674Z,23.73
2018-06-11T10:47:02.894Z,23.93
2018-06-11T10:51:55.768Z,24.17
2018-06-11T10:56:48.690Z,24.58
2018-06-11T11:01:41.563Z,24.76
2018-06-11T11:06:34.597Z,24.89
2018-06-11T11:11:27.471Z,25.12
2018-06-11T11:16:20.358Z,25.28
2018-06-11T11:21:13.302Z,25.39
2018-06-11T11:26:06.202Z,25.57
2018-06-11T11:30:59.090Z,25.26
2018-06-11T11:35:51.992Z,25.22
2018-06-11T11:40:45.079Z,25.51
2018-06-11T11:45:38.071Z,25.80
2018-06-11T11:50:30.907Z,26.02
2018-06-11T11:55:24.809Z,26.28
2018-06-11T12:00:17.822Z,26.46
2018-06-11T12:05:10.829Z,26.63
2018-06-11T12:10:03.834Z,26.46
2018-06-11T12:14:56.835Z,26.63
2018-06-11T12:19:49.797Z,26.82
2018-06-11T12:24:42.743Z,26.84
2018-06-11T12:29:35.615Z,26.93
2018-06-11T12:34:28.662Z,27.20
2018-06-11T12:39:21.839Z,27.40
2018-06-11T12:44:14.913Z,27.58
2018-06-11T12:49:07.924Z,27.67
2018-06-11T12:54:01.752Z,27.80
2018-06-11T12:58:54.744Z,27.85
2018-06-11T13:03:47.602Z,27.95
2018-06-11T13:08:41.095Z,28.06
2018-06-11T13:13:42.440Z,28.19
2018-06-11T13:18:35.294Z,28.11
2018-06-11T13:23:28.275Z,27.97
2018-06-11T13:28:21.155Z,28.13
2018-06-11T13:33:14.064Z,28.24
2018-06-11T13:38:06.933Z,28.20
2018-06-11T13:42:59.869Z,28.20
2018-06-11T13:47:52.860Z,28.32
2018-06-11T13:52:45.807Z,28.43
2018-06-11T13:57:38.779Z,28.47
2018-06-11T14:02:31.746Z,28.53
2018-06-11T14:07:24.695Z,28.63
2018-06-11T14:12:17.687Z,28.72
2018-06-11T14:17:10.555Z,28.77
2018-06-11T14:22:03.462Z,28.79
2018-06-11T14:26:56.328Z,28.79
2018-06-11T14:31:49.232Z,28.74
2018-06-11T14:36:42.756Z,28.67
2018-06-11T14:41:35.838Z,28.62
2018-06-11T14:46:28.777Z,28.63
2018-06-11T14:51:22.158Z,28.68
2018-06-11T14:56:15.033Z,28.72
2018-06-11T15:01:08.047Z,28.77
2018-06-11T15:06:01.266Z,28.76
2018-06-11T15:10:54.456Z,28.77
2018-06-11T15:15:47.523Z,28.78
2018-06-11T15:20:40.808Z,28.76
2018-06-11T15:25:33.963Z,28.75
2018-06-11T15:30:26.969Z,28.70
2018-06-11T15:35:20.141Z,28.50
2018-06-11T15:40:13.342Z,28.27
2018-06-11T15:45:06.253Z,28.29
2018-06-11T15:49:59.181Z,28.30
2018-06-11T15:54:52.193Z,28.31
2018-06-11T15:59:45.090Z,28.34
2018-06-11T16:04:38.117Z,28.31
2018-06-11T16:09:31.351Z,28.32
2018-06-11T16:14:24.307Z,28.31
2018-06-11T16:19:17.494Z,28.31
2018-06-11T16:24:10.438Z,28.25
2018-06-11T16:29:04.506Z,28.23
2018-06-11T16:34:11.240Z,28.21
2018-06-11T16:39:07.507Z,28.13
2018-06-11T16:44:00.345Z,28.07
2018-06-11T16:48:53.331Z,28.03
2018-06-11T16:53:46.329Z,27.95
2018-06-11T16:58:39.250Z,27.87
2018-06-11T17:03:32.678Z,27.76
2018-06-11T17:08:26.061Z,27.65
2018-06-11T17:13:18.992Z,27.57
2018-06-11T17:18:12.162Z,27.50
2018-06-11T17:23:05.111Z,27.43
2018-06-11T17:27:58.923Z,27.34
2018-06-11T17:32:51.859Z,27.29
2018-06-11T17:37:44.757Z,27.23
2018-06-11T17:42:37.838Z,27.16
2018-06-11T17:47:30.843Z,27.08
2018-06-11T17:52:23.753Z,27.02
2018-06-11T17:57:16.740Z,26.97
2018-06-11T18:02:09.573Z,26.90
2018-06-11T18:07:02.489Z,26.82
2018-06-11T18:11:55.628Z,26.74
2018-06-11T18:16:48.644Z,26.68
2018-06-11T18:21:41.717Z,26.59
2018-06-11T18:26:34.871Z,26.52
2018-06-11T18:31:27.769Z,26.46
2018-06-11T18:36:20.753Z,26.36
2018-06-11T18:41:13.741Z,26.29
2018-06-11T18:46:06.721Z,26.23
2018-06-11T18:55:16.323Z,26.14
2018-06-11T19:00:09.825Z,26.02
2018-06-11T19:05:03.133Z,25.92
2018-06-11T19:09:58.800Z,25.85
2018-06-11T19:14:57.198Z,25.75
2018-06-11T19:19:51.965Z,25.70
2018-06-11T19:24:45.251Z,25.61
2018-06-11T19:29:38.231Z,25.51
2018-06-11T19:34:31.229Z,25.36
2018-06-11T19:39:24.283Z,25.23
2018-06-11T19:44:17.250Z,25.16
2018-06-11T19:49:10.286Z,25.10
2018-06-11T19:54:03.383Z,25.05
2018-06-11T19:58:56.399Z,25.01
2018-06-11T20:03:49.796Z,24.85
2018-06-11T20:08:42.799Z,24.78
2018-06-11T20:13:35.927Z,24.69
2018-06-11T20:18:29.005Z,24.65
2018-06-11T20:23:21.911Z,24.58
2018-06-11T20:28:14.867Z,24.51
2018-06-11T20:33:07.861Z,24.40
2018-06-11T20:38:00.849Z,24.30
2018-06-11T20:42:53.799Z,24.21
2018-06-11T20:47:46.868Z,24.10
2018-06-11T20:52:39.681Z,24.02
2018-06-11T20:57:32.577Z,23.91
2018-06-11T21:02:25.530Z,23.85
2018-06-11T21:07:18.428Z,23.76
2018-06-11T21:12:11.329Z,23.62
2018-06-11T21:17:04.323Z,23.52
2018-06-11T21:21:57.313Z,23.45
2018-06-11T21:26:50.354Z,23.37
2018-06-11T21:31:43.321Z,23.29
2018-06-11T21:36:36.311Z,23.20
2018-06-11T21:41:29.466Z,23.09
2018-06-11T21:46:22.425Z,22.95
2018-06-11T21:51:15.425Z,22.90
2018-06-11T21:56:08.271Z,22.85
2018-06-11T22:01:01.241Z,22.83
2018-06-11T22:05:54.117Z,22.75
2018-06-11T22:10:47.079Z,22.65
2018-06-11T22:15:39.936Z,22.53
2018-06-11T22:20:32.851Z,22.43
2018-06-11T22:25:25.844Z,22.31
2018-06-11T22:30:18.673Z,22.20
2018-06-11T22:35:11.578Z,22.12
2018-06-11T22:40:04.568Z,22.05
2018-06-11T22:44:57.471Z,21.98
2018-06-11T22:49:50.325Z,21.93
2018-06-11T22:54:43.161Z,21.90
2018-06-11T22:59:36.022Z,21.81
2018-06-11T23:04:29.181Z,21.71
2018-06-11T23:09:22.032Z,21.62
2018-06-11T23:14:14.910Z,21.53
2018-06-11T23:19:07.806Z,21.44
2018-06-11T23:24:00.738Z,21.36
2018-06-11T23:28:53.621Z,21.21
2018-06-11T23:33:46.565Z,21.14
2018-06-11T23:38:39.408Z,21.08
2018-06-11T23:43:32.315Z,21.04
2018-06-11T23:48:25.202Z,20.99
2018-06-11T23:53:18.028Z,20.91
2018-06-11T23:58:10.970Z,20.82
